createdAt,value
2022-11-08T00:00:04.488Z,51.6
2022-11-08T00:01:04.487Z,51.6
2022-11-08T00:02:04.642Z,51.6
2022-11-08T00:03:04.551Z,51.6
2022-11-08T00:04:04.494Z,51.6
2022-11-08T00:05:04.513Z,51.7
2022-11-08T00:06:04.485Z,51.7
2022-11-08T00:07:04.490Z,51.6
2022-11-08T00:08:04.490Z,51.6
2022-11-08T00:09:05.472Z,51.7
2022-11-08T00:10:04.482Z,51.7
2022-11-08T00:11:04.536Z,51.6
2022-11-08T00:12:04.501Z,51.7
2022-11-08T00:13:04.497Z,51.7
2022-11-08T00:14:04.558Z,51.6
2022-11-08T00:15:04.570Z,51.6
2022-11-08T00:16:04.589Z,51.7
2022-11-08T00:17:04.583Z,51.7
2022-11-08T00:18:04.559Z,51.7
2022-11-08T00:19:04.530Z,51.7
2022-11-08T00:20:04.596Z,51.7
2022-11-08T00:21:04.500Z,51.7
2022-11-08T00:22:04.494Z,51.7
2022-11-08T00:23:04.527Z,51.7
2022-11-08T00:24:04.501Z,51.7
2022-11-08T00:25:04.507Z,51.7
2022-11-08T00:26:04.488Z,51.7
2022-11-08T00:27:04.496Z,51.7
2022-11-08T00:28:04.493Z,51.7
2022-11-08T00:29:04.564Z,51.7
2022-11-08T00:30:04.506Z,51.7
2022-11-08T00:31:04.517Z,51.7
2022-11-08T00:32:04.496Z,51.7
2022-11-08T00:33:04.506Z,51.7
2022-11-08T00:34:04.501Z,51.7
2022-11-08T00:35:04.540Z,51.6
2022-11-08T00:36:04.510Z,51.6
2022-11-08T00:37:04.504Z,51.6
2022-11-08T00:38:04.500Z,51.6
2022-11-08T00:39:04.503Z,51.6
2022-11-08T00:40:04.509Z,51.6
2022-11-08T00:42:31.964Z,51.5
2022-11-08T00:42:35.926Z,53.8
2022-11-08T00:43:04.499Z,52.1
2022-11-08T00:44:04.531Z,51.7
2022-11-08T00:45:04.511Z,51.6
2022-11-08T00:46:04.510Z,51.5
2022-11-08T00:47:04.509Z,51.5
2022-11-08T00:48:04.499Z,51.4
2022-11-08T00:49:04.502Z,51.4
2022-11-08T00:50:04.538Z,51.4
2022-11-08T00:51:04.514Z,51.4
2022-11-08T00:52:04.500Z,51.5
2022-11-08T00:53:04.506Z,51.4
2022-11-08T00:54:04.501Z,51.4
2022-11-08T00:55:04.507Z,51.4
2022-11-08T00:56:04.559Z,51.5
2022-11-08T00:57:04.521Z,51.4
2022-11-08T00:58:04.514Z,51.4
2022-11-08T00:59:04.514Z,51.4
2022-11-08T01:00:04.571Z,51.4
2022-11-08T01:01:04.553Z,51.4
2022-11-08T01:02:04.673Z,51.4
2022-11-08T01:03:04.520Z,51.4
2022-11-08T01:04:04.508Z,51.4
2022-11-08T01:05:04.509Z,51.4
2022-11-08T01:06:04.508Z,51.4
2022-11-08T01:07:04.519Z,51.5
2022-11-08T01:08:04.532Z,51.4
2022-11-08T01:09:04.518Z,51.5
2022-11-08T01:10:04.505Z,51.5
2022-11-08T01:11:04.546Z,51.5
2022-11-08T01:12:04.514Z,51.5
2022-11-08T01:13:04.507Z,51.5
2022-11-08T01:14:05.444Z,51.5
2022-11-08T01:15:04.564Z,51.5
2022-11-08T01:16:04.507Z,51.5
2022-11-08T01:17:04.516Z,51.5
2022-11-08T01:18:04.519Z,51.5
2022-11-08T01:19:04.520Z,51.5
2022-11-08T01:20:04.540Z,51.5
2022-11-08T01:21:04.562Z,51.5
2022-11-08T01:22:04.518Z,51.6
2022-11-08T01:23:04.524Z,51.6
2022-11-08T01:24:04.507Z,51.6
2022-11-08T01:25:04.542Z,51.6
2022-11-08T01:26:04.549Z,51.6
2022-11-08T01:27:04.516Z,51.6
2022-11-08T01:28:04.516Z,51.6
2022-11-08T01:29:04.515Z,51.6
2022-11-08T01:30:04.506Z,51.6
2022-11-08T01:31:04.522Z,51.6
2022-11-08T01:32:04.565Z,51.6
2022-11-08T01:33:04.529Z,51.6
2022-11-08T01:34:04.518Z,51.6
2022-11-08T01:35:04.532Z,51.7
2022-11-08T01:36:04.516Z,51.7
2022-11-08T01:37:04.514Z,51.7
2022-11-08T01:38:04.550Z,51.7
2022-11-08T01:39:04.519Z,51.7
2022-11-08T01:40:11.269Z,51.8
2022-11-08T01:41:03.972Z,51.7
2022-11-08T01:42:03.997Z,51.7
2022-11-08T01:43:03.979Z,51.7
2022-11-08T01:44:10.716Z,51.9
2022-11-08T01:45:04.438Z,51.8
2022-11-08T01:46:13.817Z,52.1
2022-11-08T01:47:05.258Z,51.8
2022-11-08T01:48:04.579Z,51.8
2022-11-08T01:49:04.740Z,51.8
2022-11-08T01:50:04.537Z,51.8
2022-11-08T01:51:04.541Z,51.7
2022-11-08T01:52:04.521Z,51.7
2022-11-08T01:53:04.542Z,51.8
2022-11-08T01:54:04.545Z,51.8
2022-11-08T01:55:04.728Z,51.8
2022-11-08T01:56:04.545Z,51.8
2022-11-08T01:57:04.541Z,51.8
2022-11-08T01:58:04.527Z,51.8
2022-11-08T01:59:04.544Z,51.8
2022-11-08T02:00:04.542Z,51.8
2022-11-08T02:01:04.646Z,51.8
2022-11-08T02:02:04.641Z,51.8
2022-11-08T02:03:04.527Z,51.9
2022-11-08T02:04:04.589Z,51.9
2022-11-08T02:05:04.540Z,51.9
2022-11-08T02:06:04.571Z,51.9
2022-11-08T02:07:04.527Z,51.9
2022-11-08T02:08:04.561Z,52.0
2022-11-08T02:09:04.530Z,52.0
2022-11-08T02:10:04.615Z,52.0
2022-11-08T02:11:04.529Z,52.0
2022-11-08T02:12:04.545Z,52.0
2022-11-08T02:13:05.529Z,52.0
2022-11-08T02:14:04.624Z,52.1
2022-11-08T02:15:04.531Z,52.0
2022-11-08T02:16:04.590Z,52.1
2022-11-08T02:17:04.549Z,52.1
2022-11-08T02:18:04.537Z,52.1
2022-11-08T02:19:04.540Z,52.1
2022-11-08T02:20:04.710Z,52.1
2022-11-08T02:21:04.537Z,52.1
2022-11-08T02:22:04.568Z,52.1
2022-11-08T02:23:04.534Z,52.1
2022-11-08T02:24:04.533Z,52.2
2022-11-08T02:25:04.531Z,52.2
2022-11-08T02:26:04.549Z,52.2
2022-11-08T02:27:04.534Z,52.2
2022-11-08T02:28:04.566Z,52.2
2022-11-08T02:29:04.583Z,52.2
2022-11-08T02:30:04.538Z,52.2
2022-11-08T02:31:04.540Z,52.3
2022-11-08T02:32:04.541Z,52.2
2022-11-08T02:34:54.854Z,53.7
2022-11-08T02:35:04.541Z,53.3
2022-11-08T02:36:04.548Z,52.5
2022-11-08T02:37:04.568Z,52.4
2022-11-08T02:38:04.552Z,52.4
2022-11-08T02:39:04.563Z,52.3
2022-11-08T02:40:04.669Z,52.3
2022-11-08T02:41:04.539Z,52.3
2022-11-08T02:42:04.545Z,52.4
2022-11-08T02:43:04.553Z,52.4
2022-11-08T02:44:04.584Z,52.4
2022-11-08T02:45:04.558Z,52.4
2022-11-08T02:46:04.575Z,52.4
2022-11-08T02:47:04.545Z,52.4
2022-11-08T02:48:04.553Z,52.4
2022-11-08T02:49:05.350Z,52.4
2022-11-08T02:50:04.556Z,52.4
2022-11-08T02:51:04.645Z,52.4
2022-11-08T02:52:06.799Z,52.4
2022-11-08T02:53:04.847Z,52.5
2022-11-08T02:54:04.561Z,52.4
2022-11-08T02:55:04.616Z,52.4
2022-11-08T02:56:04.561Z,52.5
2022-11-08T02:57:04.548Z,52.5
2022-11-08T02:58:04.614Z,52.5
2022-11-08T02:59:04.584Z,52.6
2022-11-08T03:00:04.563Z,52.6
2022-11-08T03:01:11.302Z,52.7
2022-11-08T03:02:04.898Z,52.6
2022-11-08T03:03:04.833Z,52.6
2022-11-08T03:04:04.094Z,52.6
2022-11-08T03:05:04.342Z,52.7
2022-11-08T03:06:03.996Z,52.7
2022-11-08T03:07:04.058Z,52.7
2022-11-08T03:08:03.991Z,52.7
2022-11-08T03:09:04.058Z,52.7
2022-11-08T03:10:04.041Z,52.7
2022-11-08T03:11:03.987Z,52.7
2022-11-08T03:12:04.161Z,52.7
2022-11-08T03:13:03.990Z,52.8
2022-11-08T03:14:03.987Z,52.8
2022-11-08T03:15:03.994Z,52.8
2022-11-08T03:16:04.049Z,52.8
2022-11-08T03:17:04.034Z,52.8
2022-11-08T03:18:04.063Z,52.9
2022-11-08T03:19:04.018Z,52.9
2022-11-08T03:20:03.991Z,52.9
2022-11-08T03:21:05.220Z,52.9
2022-11-08T03:22:04.041Z,52.9
2022-11-08T03:23:03.991Z,52.9
2022-11-08T03:24:03.996Z,52.9
2022-11-08T03:25:03.989Z,52.9
2022-11-08T03:26:03.996Z,52.9
2022-11-08T03:27:04.000Z,53.0
2022-11-08T03:28:04.036Z,53.0
2022-11-08T03:29:03.995Z,53.0
2022-11-08T03:30:03.999Z,53.0
2022-11-08T03:31:03.992Z,53.0
2022-11-08T03:32:04.000Z,53.0
2022-11-08T03:33:03.996Z,53.0
2022-11-08T03:34:04.021Z,53.0
2022-11-08T03:35:03.993Z,53.0
2022-11-08T03:36:04.001Z,53.1
2022-11-08T03:37:04.002Z,53.1
2022-11-08T03:38:04.008Z,53.1
2022-11-08T03:39:04.002Z,53.1
2022-11-08T03:40:04.042Z,53.1
2022-11-08T03:41:04.050Z,53.1
2022-11-08T03:42:04.007Z,53.1
2022-11-08T03:43:03.995Z,53.1
2022-11-08T03:44:04.008Z,53.1
2022-11-08T03:45:04.097Z,53.1
2022-11-08T03:46:04.039Z,53.2
2022-11-08T03:47:03.999Z,53.2
2022-11-08T03:48:04.006Z,53.2
2022-11-08T03:49:04.001Z,53.2
2022-11-08T03:50:04.015Z,53.2
2022-11-08T03:51:03.997Z,53.2
2022-11-08T03:52:04.035Z,53.2
2022-11-08T03:53:04.007Z,53.2
2022-11-08T03:54:04.055Z,53.2
2022-11-08T03:55:04.001Z,53.2
2022-11-08T03:56:04.009Z,53.2
2022-11-08T03:57:04.008Z,53.2
2022-11-08T03:58:04.007Z,53.3
2022-11-08T03:59:04.927Z,53.2
2022-11-08T04:00:04.069Z,53.3
2022-11-08T04:01:04.209Z,53.3
2022-11-08T04:02:04.162Z,53.3
2022-11-08T04:03:04.016Z,53.3
2022-11-08T04:04:04.008Z,53.3
2022-11-08T04:05:04.005Z,53.3
2022-11-08T04:06:04.037Z,53.3
2022-11-08T04:07:04.014Z,53.3
2022-11-08T04:08:04.005Z,53.4
2022-11-08T04:09:04.008Z,53.3
2022-11-08T04:10:47.927Z,53.4
2022-11-08T04:11:04.017Z,54.2
2022-11-08T04:12:04.028Z,53.5
2022-11-08T04:13:04.012Z,53.4
2022-11-08T04:14:04.047Z,53.4
2022-11-08T04:15:04.042Z,53.4
2022-11-08T04:16:04.072Z,53.4
2022-11-08T04:17:04.026Z,53.5
2022-11-08T04:18:04.006Z,53.5
2022-11-08T04:19:04.009Z,53.4
2022-11-08T04:20:04.070Z,53.4
2022-11-08T04:21:04.022Z,53.4
2022-11-08T04:22:04.026Z,53.4
2022-11-08T04:23:04.017Z,53.4
2022-11-08T04:24:04.012Z,53.4
2022-11-08T04:25:04.018Z,53.4
2022-11-08T04:26:04.062Z,53.5
2022-11-08T04:27:04.021Z,53.5
2022-11-08T04:28:04.029Z,53.5
2022-11-08T04:29:04.019Z,53.5
2022-11-08T04:30:04.044Z,53.5
2022-11-08T04:31:04.016Z,53.5
2022-11-08T04:32:04.050Z,53.5
2022-11-08T04:33:04.009Z,53.6
2022-11-08T04:34:04.064Z,53.5
2022-11-08T04:35:04.015Z,53.6
2022-11-08T04:36:04.017Z,53.6
2022-11-08T04:37:04.026Z,53.5
2022-11-08T04:38:04.020Z,53.5
2022-11-08T04:39:04.024Z,53.6
2022-11-08T04:40:04.037Z,53.5
2022-11-08T04:41:04.014Z,53.5
2022-11-08T04:42:04.021Z,53.6
2022-11-08T04:43:04.013Z,53.5
2022-11-08T04:44:04.060Z,53.5
2022-11-08T04:45:04.028Z,53.6
2022-11-08T04:46:04.021Z,53.6
2022-11-08T04:47:04.031Z,53.6
2022-11-08T04:48:04.019Z,53.6
2022-11-08T04:49:04.011Z,53.6
2022-11-08T04:50:04.060Z,53.6
2022-11-08T04:51:05.040Z,53.6
2022-11-08T04:52:04.026Z,53.6
2022-11-08T04:53:04.021Z,53.6
2022-11-08T04:54:04.026Z,53.5
2022-11-08T04:55:04.023Z,53.4
2022-11-08T04:56:04.076Z,53.2
2022-11-08T04:57:04.021Z,53.1
2022-11-08T04:58:04.030Z,53.1
2022-11-08T04:59:07.260Z,53.0
2022-11-08T05:00:04.025Z,53.0
2022-11-08T05:01:04.129Z,52.9
2022-11-08T05:02:04.217Z,52.8
2022-11-08T05:03:04.018Z,52.7
2022-11-08T05:04:04.039Z,52.7
2022-11-08T05:05:04.031Z,52.6
2022-11-08T05:06:04.028Z,52.6
2022-11-08T05:07:04.028Z,52.5
2022-11-08T05:08:04.063Z,52.4
2022-11-08T05:09:04.022Z,52.3
2022-11-08T05:10:04.062Z,52.2
2022-11-08T05:11:04.021Z,52.2
2022-11-08T05:12:04.026Z,52.1
2022-11-08T05:13:04.033Z,52.0
2022-11-08T05:14:04.063Z,51.9
2022-11-08T05:15:04.028Z,51.9
2022-11-08T05:16:04.031Z,51.8
2022-11-08T05:17:04.025Z,51.7
2022-11-08T05:18:04.032Z,51.6
2022-11-08T05:19:04.805Z,51.4
2022-11-08T05:20:04.076Z,51.4
2022-11-08T05:21:04.023Z,51.3
2022-11-08T05:22:04.048Z,51.2
2022-11-08T05:23:04.039Z,51.2
2022-11-08T05:24:04.037Z,51.0
2022-11-08T05:26:54.217Z,52.3
2022-11-08T05:27:04.604Z,52.0
2022-11-08T05:28:03.907Z,51.1
2022-11-08T05:29:03.913Z,51.0
2022-11-08T05:30:03.905Z,51.0
2022-11-08T05:31:03.920Z,50.9
2022-11-08T05:32:03.950Z,50.9
2022-11-08T05:33:03.926Z,50.8
2022-11-08T05:34:10.666Z,50.9
2022-11-08T05:35:04.384Z,50.7
2022-11-08T05:36:05.981Z,50.6
2022-11-08T05:37:04.389Z,50.7
2022-11-08T05:38:04.387Z,50.6
2022-11-08T05:39:11.178Z,50.7
2022-11-08T05:40:04.512Z,50.5
2022-11-08T05:41:03.843Z,50.5
2022-11-08T05:42:03.846Z,50.4
2022-11-08T05:43:03.838Z,50.5
2022-11-08T05:44:04.060Z,50.4
2022-11-08T05:45:08.246Z,50.5
2022-11-08T05:46:03.843Z,50.5
2022-11-08T05:47:03.842Z,50.5
2022-11-08T05:48:03.935Z,50.5
2022-11-08T05:49:03.846Z,50.4
2022-11-08T05:50:03.891Z,50.4
2022-11-08T05:51:03.839Z,50.4
2022-11-08T05:52:03.855Z,50.4
2022-11-08T05:53:03.861Z,50.4
2022-11-08T05:54:03.847Z,50.5
2022-11-08T05:55:03.839Z,50.4
2022-11-08T05:56:03.894Z,50.5
2022-11-08T05:57:03.846Z,50.5
2022-11-08T05:58:03.851Z,50.5
2022-11-08T05:59:03.856Z,50.6
2022-11-08T06:00:04.189Z,50.7
2022-11-08T06:01:03.865Z,50.8
2022-11-08T06:02:04.003Z,50.8
2022-11-08T06:03:03.922Z,50.9
2022-11-08T06:04:03.852Z,50.9
2022-11-08T06:05:03.840Z,50.9
2022-11-08T06:06:03.855Z,50.9
2022-11-08T06:07:03.845Z,51.0
2022-11-08T06:08:03.916Z,51.0
2022-11-08T06:09:03.878Z,51.1
2022-11-08T06:10:03.896Z,51.2
2022-11-08T06:11:03.842Z,51.3
2022-11-08T06:12:03.864Z,51.3
2022-11-08T06:13:03.851Z,51.2
2022-11-08T06:14:03.911Z,51.2
2022-11-08T06:15:03.864Z,51.1
2022-11-08T06:16:03.870Z,51.2
2022-11-08T06:17:03.845Z,51.2
2022-11-08T06:18:03.877Z,51.2
2022-11-08T06:19:03.848Z,51.2
2022-11-08T06:20:03.897Z,51.2
2022-11-08T06:21:03.839Z,51.2
2022-11-08T06:22:03.860Z,51.3
2022-11-08T06:23:03.857Z,51.3
2022-11-08T06:24:03.854Z,51.3
2022-11-08T06:25:03.857Z,51.3
2022-11-08T06:26:03.882Z,51.3
2022-11-08T06:27:03.868Z,51.3
2022-11-08T06:28:03.854Z,51.4
2022-11-08T06:29:03.886Z,51.3
2022-11-08T06:30:03.997Z,51.3
2022-11-08T06:31:03.994Z,51.4
2022-11-08T06:32:04.087Z,51.4
2022-11-08T06:33:03.957Z,51.3
2022-11-08T06:34:03.993Z,51.3
2022-11-08T06:35:03.953Z,51.3
2022-11-08T06:36:03.947Z,51.4
2022-11-08T06:37:03.961Z,51.4
2022-11-08T06:38:09.022Z,51.4
2022-11-08T06:39:03.956Z,51.4
2022-11-08T06:40:04.114Z,51.5
2022-11-08T06:41:03.937Z,51.5
2022-11-08T06:42:03.950Z,51.5
2022-11-08T06:43:03.888Z,51.4
2022-11-08T06:44:04.011Z,51.4
2022-11-08T06:45:03.900Z,51.3
2022-11-08T06:46:03.975Z,51.3
2022-11-08T06:47:03.959Z,51.2
2022-11-08T06:48:03.981Z,51.2
2022-11-08T06:49:03.973Z,51.1
2022-11-08T06:50:04.044Z,51.1
2022-11-08T06:51:03.960Z,51.1
2022-11-08T06:52:03.968Z,51.0
2022-11-08T06:53:03.955Z,51.0
2022-11-08T06:54:06.825Z,50.9
2022-11-08T06:55:03.965Z,50.9
2022-11-08T06:56:04.035Z,50.8
2022-11-08T06:57:03.976Z,50.8
2022-11-08T06:58:03.979Z,50.7
2022-11-08T06:59:03.971Z,50.7
2022-11-08T07:00:03.893Z,50.7
2022-11-08T07:01:03.966Z,50.7
2022-11-08T07:02:04.178Z,50.7
2022-11-08T07:03:04.140Z,50.7
2022-11-08T07:04:03.955Z,50.7
2022-11-08T07:05:04.017Z,50.7
2022-11-08T07:06:03.981Z,50.7
2022-11-08T07:07:03.966Z,50.7
2022-11-08T07:08:03.975Z,50.7
2022-11-08T07:09:03.982Z,50.7
2022-11-08T07:10:04.471Z,50.7
2022-11-08T07:11:03.995Z,50.7
2022-11-08T07:12:04.546Z,50.7
2022-11-08T07:13:04.294Z,50.7
2022-11-08T07:14:04.048Z,50.8
2022-11-08T07:15:03.902Z,50.8
2022-11-08T07:16:04.061Z,50.8
2022-11-08T07:17:03.965Z,50.8
2022-11-08T07:18:04.069Z,50.8
2022-11-08T07:19:03.969Z,50.8
2022-11-08T07:20:04.053Z,50.8
2022-11-08T07:21:03.967Z,50.8
2022-11-08T07:22:03.987Z,50.9
2022-11-08T07:23:03.935Z,50.9
2022-11-08T07:24:03.998Z,50.9
2022-11-08T07:25:03.973Z,50.9
2022-11-08T07:26:04.041Z,51.0
2022-11-08T07:27:03.979Z,51.0
2022-11-08T07:28:04.006Z,51.0
2022-11-08T07:29:03.985Z,51.0
2022-11-08T07:30:03.960Z,51.1
2022-11-08T07:31:03.962Z,51.1
2022-11-08T07:32:04.183Z,51.1
2022-11-08T07:33:03.961Z,51.1
2022-11-08T07:34:03.987Z,51.1
2022-11-08T07:35:03.983Z,51.1
2022-11-08T07:36:04.000Z,51.1
2022-11-08T07:37:03.973Z,51.1
2022-11-08T07:38:04.052Z,51.2
2022-11-08T07:39:06.672Z,51.2
2022-11-08T07:40:03.974Z,51.2
2022-11-08T07:41:03.986Z,51.2
2022-11-08T07:42:04.009Z,51.2
2022-11-08T07:43:12.912Z,51.2
2022-11-08T07:44:04.033Z,51.3
2022-11-08T07:45:03.973Z,51.2
2022-11-08T07:46:03.959Z,51.2
2022-11-08T07:47:03.881Z,51.1
2022-11-08T07:48:09.591Z,51.1
2022-11-08T07:49:03.976Z,51.1
2022-11-08T07:50:04.040Z,51.0
2022-11-08T07:51:03.992Z,50.9
2022-11-08T07:52:03.959Z,50.9
2022-11-08T07:53:03.987Z,50.8
2022-11-08T07:54:03.994Z,50.8
2022-11-08T07:55:03.992Z,50.7
2022-11-08T07:56:04.067Z,50.7
2022-11-08T07:57:04.029Z,50.7
2022-11-08T07:58:03.935Z,50.7
2022-11-08T07:59:03.947Z,50.7
2022-11-08T08:00:07.698Z,50.6
2022-11-08T08:01:03.912Z,50.6
2022-11-08T08:02:04.083Z,50.6
2022-11-08T08:03:04.008Z,50.6
2022-11-08T08:04:03.984Z,50.6
2022-11-08T08:05:04.042Z,50.5
2022-11-08T08:06:04.011Z,50.5
2022-11-08T08:07:03.983Z,50.5
2022-11-08T08:08:04.065Z,50.6
2022-11-08T08:09:04.035Z,50.5
2022-11-08T08:10:04.003Z,50.6
2022-11-08T08:11:03.995Z,50.5
2022-11-08T08:12:03.991Z,50.6
2022-11-08T08:13:03.996Z,50.6
2022-11-08T08:14:04.085Z,50.6
2022-11-08T08:15:04.009Z,50.5
2022-11-08T08:16:03.996Z,50.6
2022-11-08T08:17:03.995Z,50.6
2022-11-08T08:18:03.933Z,50.6
2022-11-08T08:19:03.993Z,50.7
2022-11-08T08:20:04.006Z,50.7
2022-11-08T08:21:04.072Z,50.7
2022-11-08T08:22:04.001Z,50.7
2022-11-08T08:23:04.023Z,50.7
2022-11-08T08:24:03.975Z,50.8
2022-11-08T08:25:03.991Z,50.7
2022-11-08T08:26:03.998Z,50.8
2022-11-08T08:27:04.011Z,50.8
2022-11-08T08:28:04.299Z,50.9
2022-11-08T08:29:03.983Z,50.9
2022-11-08T08:30:03.981Z,50.9
2022-11-08T08:31:03.966Z,50.9
2022-11-08T08:32:03.997Z,50.9
2022-11-08T08:33:26.844Z,51.0
2022-11-08T08:34:04.017Z,51.2
2022-11-08T08:35:04.019Z,51.1
2022-11-08T08:36:04.015Z,51.0
2022-11-08T08:37:03.995Z,51.0
2022-11-08T08:38:03.898Z,51.0
2022-11-08T08:39:04.070Z,51.0
2022-11-08T08:40:04.047Z,51.0
2022-11-08T08:41:04.005Z,51.0
2022-11-08T08:42:04.009Z,51.0
2022-11-08T08:43:03.987Z,50.9
2022-11-08T08:44:03.991Z,50.9
2022-11-08T08:45:04.057Z,50.9
2022-11-08T08:46:03.897Z,50.8
2022-11-08T08:47:03.975Z,50.8
2022-11-08T08:48:03.966Z,50.8
2022-11-08T08:49:04.011Z,50.7
2022-11-08T08:50:03.944Z,50.7
2022-11-08T08:51:04.030Z,50.6
2022-11-08T08:52:03.939Z,50.6
2022-11-08T08:53:04.015Z,50.6
2022-11-08T08:54:04.014Z,50.5
2022-11-08T08:55:04.007Z,50.5
2022-11-08T08:56:04.005Z,50.5
2022-11-08T08:57:04.113Z,50.5
2022-11-08T08:58:04.034Z,50.5
2022-11-08T09:02:04.028Z,50.9
2022-11-08T09:03:04.058Z,50.6
2022-11-08T09:04:04.024Z,50.6
2022-11-08T09:05:03.999Z,50.5
2022-11-08T09:06:03.998Z,50.5
2022-11-08T09:07:04.042Z,50.5
2022-11-08T09:08:04.001Z,50.5
2022-11-08T09:09:04.064Z,50.5
2022-11-08T09:10:04.033Z,50.5
2022-11-08T09:11:04.027Z,50.5
2022-11-08T09:12:04.024Z,50.5
2022-11-08T09:13:04.034Z,50.5
2022-11-08T09:14:03.992Z,50.5
2022-11-08T09:15:04.082Z,50.6
2022-11-08T09:16:04.306Z,50.5
2022-11-08T09:17:04.009Z,50.6
2022-11-08T09:18:04.069Z,50.6
2022-11-08T09:19:04.009Z,50.6
2022-11-08T09:20:04.004Z,50.6
2022-11-08T09:21:04.097Z,50.7
2022-11-08T09:22:04.106Z,50.7
2022-11-08T09:23:04.040Z,50.7
2022-11-08T09:25:34.880Z,52.2
2022-11-08T09:26:04.727Z,51.2
2022-11-08T09:27:04.657Z,51.0
2022-11-08T09:28:04.641Z,51.0
2022-11-08T09:29:04.655Z,51.0
2022-11-08T09:30:04.641Z,50.9
2022-11-08T09:31:04.658Z,50.9
2022-11-08T09:32:04.669Z,50.9
2022-11-08T09:33:04.700Z,50.9
2022-11-08T09:34:04.654Z,50.9
2022-11-08T09:35:04.654Z,50.9
2022-11-08T09:36:04.649Z,50.9
2022-11-08T09:37:04.655Z,50.9
2022-11-08T09:38:04.660Z,50.8
2022-11-08T09:39:04.621Z,50.8
2022-11-08T09:40:04.858Z,50.8
2022-11-08T09:41:04.670Z,50.7
2022-11-08T09:42:04.638Z,50.7
2022-11-08T09:43:04.657Z,50.6
2022-11-08T09:44:04.711Z,50.6
2022-11-08T09:45:04.678Z,50.6
2022-11-08T09:46:04.626Z,50.6
2022-11-08T09:47:04.584Z,50.6
2022-11-08T09:48:05.388Z,50.5
2022-11-08T09:49:04.638Z,50.5
2022-11-08T09:50:04.696Z,50.5
2022-11-08T09:51:04.640Z,50.4
2022-11-08T09:52:04.645Z,50.4
2022-11-08T09:53:04.648Z,50.4
2022-11-08T09:54:04.611Z,50.4
2022-11-08T09:55:04.668Z,50.4
2022-11-08T09:56:04.596Z,50.4
2022-11-08T09:57:04.548Z,50.4
2022-11-08T09:58:04.543Z,50.4
2022-11-08T09:59:04.551Z,50.4
2022-11-08T10:00:04.607Z,50.5
2022-11-08T10:01:04.568Z,50.4
2022-11-08T10:02:04.691Z,50.5
2022-11-08T10:03:04.541Z,50.5
2022-11-08T10:04:04.544Z,50.5
2022-11-08T10:05:04.636Z,50.5
2022-11-08T10:06:04.550Z,50.5
2022-11-08T10:07:04.617Z,50.5
2022-11-08T10:08:04.599Z,50.5
2022-11-08T10:09:04.541Z,50.5
2022-11-08T10:10:04.553Z,50.6
2022-11-08T10:11:04.556Z,50.6
2022-11-08T10:12:04.555Z,50.6
2022-11-08T10:13:04.559Z,50.6
2022-11-08T10:14:04.616Z,50.6
2022-11-08T10:15:04.540Z,50.6
2022-11-08T10:16:04.557Z,50.7
2022-11-08T10:17:04.563Z,50.7
2022-11-08T10:18:04.537Z,50.6
2022-11-08T10:19:04.663Z,50.7
2022-11-08T10:20:31.006Z,51.6
2022-11-08T10:21:03.708Z,50.9
2022-11-08T10:22:03.699Z,50.8
2022-11-08T10:23:03.697Z,50.8
2022-11-08T10:24:03.707Z,50.7
2022-11-08T10:25:03.743Z,50.8
2022-11-08T10:26:10.482Z,50.9
2022-11-08T10:27:04.206Z,50.8
2022-11-08T10:28:04.206Z,50.7
2022-11-08T10:29:04.206Z,50.7
2022-11-08T10:30:11.014Z,50.8
2022-11-08T10:31:03.690Z,50.7
2022-11-08T10:32:10.429Z,50.8
2022-11-08T10:33:04.156Z,50.7
2022-11-08T10:34:06.880Z,50.6
2022-11-08T10:35:10.876Z,50.8
2022-11-08T10:36:04.589Z,50.6
2022-11-08T10:37:04.628Z,50.6
2022-11-08T10:38:04.594Z,50.6
2022-11-08T10:39:04.593Z,50.5
2022-11-08T10:40:04.593Z,50.5
2022-11-08T10:41:05.508Z,50.5
2022-11-08T10:42:04.614Z,50.5
2022-11-08T10:43:09.202Z,50.4
2022-11-08T10:44:04.611Z,50.5
2022-11-08T10:45:04.603Z,50.5
2022-11-08T10:46:04.621Z,50.4
2022-11-08T10:47:04.592Z,50.4
2022-11-08T10:48:04.607Z,50.4
2022-11-08T10:49:04.630Z,50.4
2022-11-08T10:50:04.729Z,50.4
2022-11-08T10:51:04.602Z,50.4
2022-11-08T10:52:04.607Z,50.4
2022-11-08T10:53:04.636Z,50.4
2022-11-08T10:55:04.937Z,50.4
2022-11-08T10:56:04.792Z,50.4
2022-11-08T10:57:05.751Z,50.4
2022-11-08T10:58:04.666Z,50.4
2022-11-08T10:59:04.679Z,50.4
2022-11-08T11:00:04.698Z,50.4
2022-11-08T11:01:04.770Z,50.5
2022-11-08T11:02:04.787Z,50.5
2022-11-08T11:03:04.700Z,50.5
2022-11-08T11:04:04.743Z,50.5
2022-11-08T11:05:04.808Z,50.5
2022-11-08T11:06:04.722Z,50.5
2022-11-08T11:07:04.763Z,50.5
2022-11-08T11:08:04.720Z,50.6
2022-11-08T11:09:04.715Z,50.6
2022-11-08T11:10:04.725Z,50.6
2022-11-08T11:11:04.711Z,50.6
2022-11-08T11:12:04.724Z,50.6
2022-11-08T11:13:04.705Z,50.6
2022-11-08T11:14:04.760Z,50.6
2022-11-08T11:15:04.958Z,50.6
2022-11-08T11:16:04.646Z,50.6
2022-11-08T11:17:04.607Z,50.6
2022-11-08T11:18:04.636Z,50.6
2022-11-08T11:19:04.596Z,50.6
2022-11-08T11:20:04.653Z,50.6
2022-11-08T11:21:04.603Z,50.6
2022-11-08T11:22:04.637Z,50.6
2022-11-08T11:23:04.606Z,50.6
2022-11-08T11:24:04.597Z,50.7
2022-11-08T11:25:04.595Z,50.6
2022-11-08T11:27:35.517Z,52.0
2022-11-08T11:28:04.202Z,51.0
2022-11-08T11:29:04.202Z,50.8
2022-11-08T11:30:09.211Z,50.7
2022-11-08T11:31:04.209Z,50.7
2022-11-08T11:32:04.203Z,50.7
2022-11-08T11:33:04.304Z,50.6
2022-11-08T11:34:04.191Z,50.6
2022-11-08T11:35:04.251Z,50.5
2022-11-08T11:36:06.060Z,50.6
2022-11-08T11:37:04.206Z,50.6
2022-11-08T11:38:04.197Z,50.5
2022-11-08T11:39:04.231Z,50.5
2022-11-08T11:40:04.222Z,50.5
2022-11-08T11:41:09.762Z,50.5
2022-11-08T11:42:24.093Z,50.5
2022-11-08T11:43:04.206Z,51.0
2022-11-08T11:44:04.216Z,50.6
2022-11-08T11:45:04.751Z,50.5
2022-11-08T11:46:04.198Z,50.5
2022-11-08T11:47:04.204Z,50.4
2022-11-08T11:48:04.207Z,50.4
2022-11-08T11:49:04.206Z,50.4
2022-11-08T11:50:04.201Z,50.4
2022-11-08T11:51:04.319Z,50.4
2022-11-08T11:52:10.947Z,50.5
2022-11-08T11:53:03.683Z,50.4
2022-11-08T11:54:03.725Z,50.4
2022-11-08T11:55:03.777Z,50.4
2022-11-08T11:56:03.773Z,50.4
2022-11-08T11:57:03.772Z,50.4
2022-11-08T11:58:03.748Z,50.4
2022-11-08T11:59:03.777Z,50.4
2022-11-08T12:00:03.715Z,50.4
2022-11-08T12:01:03.757Z,50.4
2022-11-08T12:02:03.815Z,50.4
2022-11-08T12:03:03.766Z,50.4
2022-11-08T12:04:03.756Z,50.4
2022-11-08T12:05:04.102Z,50.4
2022-11-08T12:06:03.786Z,50.4
2022-11-08T12:07:05.543Z,50.5
2022-11-08T12:08:03.851Z,50.5
2022-11-08T12:09:06.305Z,50.5
2022-11-08T12:10:03.665Z,50.5
2022-11-08T12:11:03.665Z,50.5
2022-11-08T12:12:03.670Z,50.5
2022-11-08T12:13:03.674Z,50.5
2022-11-08T12:14:03.692Z,50.6
2022-11-08T12:15:03.676Z,50.6
2022-11-08T12:16:03.675Z,50.6
2022-11-08T12:17:03.681Z,50.6
2022-11-08T12:18:03.728Z,50.6
2022-11-08T12:19:03.742Z,50.6
2022-11-08T12:20:04.818Z,50.6
2022-11-08T12:21:03.728Z,50.6
2022-11-08T12:22:03.721Z,50.6
2022-11-08T12:23:03.747Z,50.6
2022-11-08T12:24:03.759Z,50.6
2022-11-08T12:25:03.753Z,50.6
2022-11-08T12:26:03.751Z,50.6
2022-11-08T12:27:03.742Z,50.6
2022-11-08T12:28:03.763Z,50.6
2022-11-08T12:29:03.713Z,50.6
2022-11-08T12:30:03.679Z,50.6
2022-11-08T12:31:03.697Z,50.6
2022-11-08T12:32:03.715Z,50.5
2022-11-08T12:33:03.710Z,50.6
2022-11-08T12:34:03.743Z,50.6
2022-11-08T12:35:03.744Z,50.5
2022-11-08T12:36:03.901Z,50.5
2022-11-08T12:37:03.721Z,50.5
2022-11-08T12:38:04.579Z,50.5
2022-11-08T12:39:03.740Z,50.4
2022-11-08T12:40:03.667Z,50.5
2022-11-08T12:41:03.764Z,50.4
2022-11-08T12:42:03.685Z,50.4
2022-11-08T12:43:03.683Z,50.4
2022-11-08T12:44:03.801Z,50.4
2022-11-08T12:45:03.929Z,50.4
2022-11-08T12:46:03.851Z,50.4
2022-11-08T12:47:03.717Z,50.3
2022-11-08T12:48:03.684Z,50.3
2022-11-08T12:49:03.677Z,50.3
2022-11-08T12:50:03.724Z,50.3
2022-11-08T12:51:03.923Z,50.3
2022-11-08T12:52:03.697Z,50.3
2022-11-08T12:53:03.708Z,50.3
2022-11-08T12:54:03.693Z,50.2
2022-11-08T12:55:03.705Z,50.3
2022-11-08T12:56:03.717Z,50.2
2022-11-08T12:58:35.537Z,51.6
2022-11-08T12:59:04.246Z,50.6
2022-11-08T13:00:04.272Z,50.4
2022-11-08T13:01:04.329Z,50.3
2022-11-08T13:02:04.268Z,50.3
2022-11-08T13:03:04.257Z,50.3
2022-11-08T13:04:06.266Z,50.3
2022-11-08T13:05:04.397Z,50.3
2022-11-08T13:06:04.353Z,50.3
2022-11-08T13:07:04.331Z,50.3
2022-11-08T13:08:04.258Z,50.3
2022-11-08T13:09:04.248Z,50.3
2022-11-08T13:10:04.294Z,50.3
2022-11-08T13:11:04.254Z,50.4
2022-11-08T13:12:04.259Z,50.4
2022-11-08T13:13:04.248Z,50.4
2022-11-08T13:14:04.251Z,50.4
2022-11-08T13:15:04.357Z,50.4
2022-11-08T13:16:04.292Z,50.4
2022-11-08T13:17:04.250Z,50.4
2022-11-08T13:18:04.252Z,50.4
2022-11-08T13:19:04.255Z,50.5
2022-11-08T13:20:05.573Z,50.5
2022-11-08T13:21:04.255Z,50.5
2022-11-08T13:22:04.361Z,50.5
2022-11-08T13:23:04.250Z,50.5
2022-11-08T13:24:14.236Z,50.5
2022-11-08T13:25:04.289Z,50.8
2022-11-08T13:26:04.268Z,50.6
2022-11-08T13:27:04.257Z,50.6